createdAt,value
2018-07-09T00:02:08.681Z,21.80
2018-07-09T00:04:36.540Z,21.80
2018-07-09T00:07:04.421Z,21.90
2018-07-09T00:09:32.220Z,21.90
2018-07-09T00:14:27.734Z,21.70
2018-07-09T00:16:55.619Z,21.90
2018-07-09T00:19:23.531Z,22.00
2018-07-09T00:21:51.404Z,22.20
2018-07-09T00:24:19.207Z,22.10
2018-07-09T00:26:47.210Z,22.00
2018-07-09T00:29:15.085Z,22.00
2018-07-09T00:31:43.031Z,21.90
2018-07-09T00:34:10.889Z,21.90
2018-07-09T00:36:38.742Z,22.00
2018-07-09T00:39:06.696Z,21.90
2018-07-09T00:41:35.575Z,21.70
2018-07-09T00:44:03.445Z,21.80
2018-07-09T00:46:31.380Z,21.80
2018-07-09T00:48:59.471Z,21.80
2018-07-09T00:51:27.356Z,21.90
2018-07-09T00:53:55.216Z,21.90
2018-07-09T00:56:23.240Z,21.90
2018-07-09T00:58:51.416Z,21.90
2018-07-09T01:01:19.336Z,21.90
2018-07-09T01:03:47.203Z,21.90
2018-07-09T01:06:15.084Z,21.90
2018-07-09T01:08:43.137Z,21.70
2018-07-09T01:11:46.912Z,21.80
2018-07-09T01:14:14.785Z,21.90
2018-07-09T01:16:42.679Z,21.80
2018-07-09T01:19:10.575Z,21.70
2018-07-09T01:21:38.500Z,21.50
2018-07-09T01:24:06.394Z,21.50
2018-07-09T01:26:34.243Z,21.50
2018-07-09T01:29:02.274Z,21.30
2018-07-09T01:31:30.141Z,21.10
2018-07-09T01:33:58.005Z,21.20
2018-07-09T01:36:25.880Z,21.10
2018-07-09T01:38:53.682Z,21.10
2018-07-09T01:41:21.500Z,21.10
2018-07-09T01:43:49.370Z,21.10
2018-07-09T01:46:17.271Z,21.10
2018-07-09T01:48:45.117Z,20.90
2018-07-09T01:51:12.912Z,20.80
2018-07-09T01:53:40.804Z,21.00
2018-07-09T01:56:08.664Z,21.00
2018-07-09T01:58:36.516Z,21.00
2018-07-09T02:01:04.409Z,21.00
2018-07-09T02:06:00.085Z,20.90
2018-07-09T02:08:28.060Z,20.80
2018-07-09T02:10:55.974Z,20.90
2018-07-09T02:13:23.845Z,20.80
2018-07-09T02:15:51.664Z,20.70
2018-07-09T02:18:19.563Z,20.70
2018-07-09T02:20:47.401Z,20.50
2018-07-09T02:23:15.224Z,20.70
2018-07-09T02:25:43.120Z,20.40
2018-07-09T02:28:11.016Z,20.40
2018-07-09T02:30:38.841Z,20.30
2018-07-09T02:33:06.695Z,20.30
2018-07-09T02:35:34.561Z,20.30
2018-07-09T02:38:02.463Z,20.30
2018-07-09T02:40:30.320Z,20.40
2018-07-09T02:42:58.137Z,20.30
2018-07-09T02:45:26.060Z,20.30
2018-07-09T02:47:53.852Z,20.30
2018-07-09T02:50:21.709Z,20.40
2018-07-09T02:52:49.567Z,20.10
2018-07-09T02:55:17.441Z,20.30
2018-07-09T02:57:45.279Z,20.20
2018-07-09T03:00:13.157Z,20.30
2018-07-09T03:02:41.030Z,20.20
2018-07-09T03:05:08.871Z,20.20
2018-07-09T03:07:36.765Z,20.10
2018-07-09T03:10:04.660Z,20.10
2018-07-09T03:12:32.471Z,20.00
2018-07-09T03:17:28.080Z,20.40
2018-07-09T03:19:55.897Z,20.10
2018-07-09T03:22:23.704Z,20.20
2018-07-09T03:24:51.558Z,19.90
2018-07-09T03:27:19.440Z,20.20
2018-07-09T03:29:47.317Z,20.30
2018-07-09T03:32:15.129Z,20.10
2018-07-09T03:34:43.020Z,20.10
2018-07-09T03:37:10.893Z,20.00
2018-07-09T03:39:38.727Z,20.00
2018-07-09T03:42:06.542Z,19.90
2018-07-09T03:44:34.440Z,20.00
2018-07-09T03:47:02.278Z,19.90
2018-07-09T03:49:30.161Z,20.10
2018-07-09T03:51:58.020Z,20.00
2018-07-09T03:54:25.869Z,20.00
2018-07-09T03:56:53.827Z,20.00
2018-07-09T03:59:21.712Z,20.00
2018-07-09T04:01:49.549Z,19.90
2018-07-09T04:04:17.480Z,19.80
2018-07-09T04:06:46.085Z,19.90
2018-07-09T04:09:14.000Z,19.70
2018-07-09T04:11:41.897Z,19.80
2018-07-09T04:14:09.810Z,19.70
2018-07-09T04:16:37.684Z,19.80
2018-07-09T04:19:05.657Z,19.70
2018-07-09T04:21:33.557Z,19.80
2018-07-09T04:24:01.434Z,19.90
2018-07-09T04:26:29.316Z,19.80
2018-07-09T04:28:57.210Z,19.90
2018-07-09T04:31:25.054Z,19.70
2018-07-09T04:33:52.872Z,20.00
2018-07-09T04:36:20.765Z,19.90
2018-07-09T04:38:48.559Z,20.00
2018-07-09T04:41:16.459Z,20.20
2018-07-09T04:43:44.322Z,19.80
2018-07-09T04:46:12.236Z,20.10
2018-07-09T04:48:40.043Z,20.00
2018-07-09T04:51:07.877Z,20.10
2018-07-09T04:53:35.766Z,20.10
2018-07-09T04:56:03.628Z,20.00
2018-07-09T04:58:31.432Z,20.10
2018-07-09T05:00:59.294Z,20.20
2018-07-09T05:03:27.165Z,19.90
2018-07-09T05:05:55.102Z,20.30
2018-07-09T05:08:22.992Z,20.20
2018-07-09T05:10:50.832Z,20.20
2018-07-09T05:13:18.653Z,20.20
2018-07-09T05:15:46.552Z,20.20
2018-07-09T05:20:42.274Z,20.70
2018-07-09T05:23:10.168Z,21.00
2018-07-09T05:25:38.106Z,21.70
2018-07-09T05:28:06.032Z,22.20
2018-07-09T05:30:33.883Z,22.80
2018-07-09T05:33:01.789Z,23.30
2018-07-09T05:35:29.702Z,23.70
2018-07-09T05:37:57.584Z,24.00
2018-07-09T05:40:25.565Z,24.10
2018-07-09T05:42:53.492Z,24.20
2018-07-09T05:45:21.508Z,24.30
2018-07-09T05:47:50.013Z,24.40
2018-07-09T05:50:17.968Z,24.60
2018-07-09T05:52:45.897Z,25.00
2018-07-09T05:55:13.758Z,25.30
2018-07-09T05:57:41.629Z,25.50
2018-07-09T06:00:09.583Z,25.60
2018-07-09T06:02:37.531Z,25.70
2018-07-09T06:05:05.576Z,25.50
2018-07-09T06:07:33.469Z,25.10
2018-07-09T06:10:01.392Z,24.50
2018-07-09T06:12:29.278Z,24.30
2018-07-09T06:14:57.226Z,24.70
2018-07-09T06:17:25.250Z,25.30
2018-07-09T06:19:53.217Z,25.80
2018-07-09T06:22:21.151Z,26.50
2018-07-09T06:24:49.021Z,26.80
2018-07-09T06:27:16.865Z,27.10
2018-07-09T06:29:44.764Z,27.20
2018-07-09T06:32:12.582Z,27.40
2018-07-09T06:34:40.456Z,27.30
2018-07-09T06:37:09.260Z,27.50
2018-07-09T06:39:37.188Z,27.80
2018-07-09T06:42:05.061Z,28.10
2018-07-09T06:44:32.908Z,28.30
2018-07-09T06:47:00.813Z,28.60
2018-07-09T06:49:28.709Z,28.70
2018-07-09T06:51:56.589Z,29.00
2018-07-09T06:54:24.483Z,29.30
2018-07-09T06:56:52.380Z,29.60
2018-07-09T06:59:20.248Z,29.70
2018-07-09T07:01:48.185Z,29.60
2018-07-09T07:04:16.124Z,29.90
2018-07-09T07:06:45.220Z,30.00
2018-07-09T07:09:13.282Z,30.40
2018-07-09T07:11:41.140Z,30.60
2018-07-09T07:14:09.049Z,30.50
2018-07-09T07:16:36.848Z,30.60
2018-07-09T07:19:04.829Z,30.60
2018-07-09T07:21:32.733Z,30.70
2018-07-09T07:24:00.645Z,30.70
2018-07-09T07:26:28.524Z,31.10
2018-07-09T07:28:56.429Z,30.90
2018-07-09T07:31:24.282Z,31.20
2018-07-09T07:33:52.189Z,31.60
2018-07-09T07:36:20.124Z,31.80
2018-07-09T07:38:48.042Z,31.90
2018-07-09T07:41:15.908Z,32.00
2018-07-09T07:43:43.825Z,32.20
2018-07-09T07:48:39.392Z,32.40
2018-07-09T07:51:07.192Z,32.20
2018-07-09T07:53:35.125Z,32.30
2018-07-09T07:56:03.053Z,32.20
2018-07-09T07:58:30.910Z,32.40
2018-07-09T08:00:58.776Z,32.70
2018-07-09T08:03:26.668Z,33.30
2018-07-09T08:05:54.504Z,33.40
2018-07-09T08:08:22.449Z,33.20
2018-07-09T08:10:50.380Z,33.40
2018-07-09T08:13:32.388Z,33.30
2018-07-09T08:18:14.124Z,33.60
2018-07-09T08:20:42.007Z,33.70
2018-07-09T08:23:09.848Z,33.90
2018-07-09T08:25:37.865Z,34.30
2018-07-09T08:28:05.677Z,34.30
2018-07-09T08:30:33.587Z,34.40
2018-07-09T08:33:01.969Z,34.50
2018-07-09T08:35:29.810Z,34.70
2018-07-09T08:37:57.770Z,34.50
2018-07-09T08:40:25.572Z,34.20
2018-07-09T08:42:53.517Z,34.30
2018-07-09T08:45:21.388Z,34.70
2018-07-09T08:47:49.377Z,34.90
2018-07-09T08:50:17.285Z,34.90
2018-07-09T08:52:45.228Z,34.60
2018-07-09T08:55:13.131Z,34.40
2018-07-09T08:57:40.995Z,34.40
2018-07-09T09:00:08.901Z,34.40
2018-07-09T09:02:36.814Z,34.50
2018-07-09T09:05:04.796Z,34.80
2018-07-09T09:07:32.995Z,35.00
2018-07-09T09:10:00.889Z,34.90
2018-07-09T09:12:28.808Z,35.00
2018-07-09T09:14:56.792Z,34.80
2018-07-09T09:17:24.621Z,34.70
2018-07-09T09:19:52.521Z,34.50
2018-07-09T09:22:20.368Z,34.50
2018-07-09T09:24:48.170Z,34.50
2018-07-09T09:27:15.968Z,34.60
2018-07-09T09:29:43.843Z,34.70
2018-07-09T09:32:11.736Z,34.80
2018-07-09T09:34:39.544Z,34.30
2018-07-09T09:37:07.704Z,34.40
2018-07-09T09:39:35.796Z,34.00
2018-07-09T09:42:03.684Z,33.80
2018-07-09T09:44:31.652Z,33.50
2018-07-09T09:46:59.501Z,33.30
2018-07-09T09:49:27.685Z,33.30
2018-07-09T09:51:55.516Z,33.40
2018-07-09T09:54:23.397Z,33.40
2018-07-09T09:56:51.278Z,33.50
2018-07-09T09:59:19.157Z,33.40
2018-07-09T10:01:47.001Z,33.60
2018-07-09T10:04:14.904Z,33.30
2018-07-09T10:06:42.784Z,32.80
2018-07-09T10:09:10.566Z,32.70
2018-07-09T10:11:38.401Z,32.50
2018-07-09T10:14:06.360Z,32.60
2018-07-09T10:16:34.184Z,32.70
2018-07-09T10:19:02.170Z,33.10
2018-07-09T10:21:30.028Z,32.90
2018-07-09T10:23:57.998Z,32.80
2018-07-09T10:26:25.900Z,32.70
2018-07-09T10:28:53.780Z,32.40
2018-07-09T10:31:21.605Z,32.20
2018-07-09T10:33:49.467Z,32.20
2018-07-09T10:36:17.331Z,32.30
2018-07-09T10:38:45.207Z,32.30
2018-07-09T10:41:13.190Z,32.20
2018-07-09T10:43:41.038Z,32.20
2018-07-09T10:46:09.081Z,32.30
2018-07-09T10:48:36.948Z,32.20
2018-07-09T10:51:04.977Z,32.40
2018-07-09T10:53:32.852Z,32.40
2018-07-09T10:56:00.699Z,32.30
2018-07-09T10:58:28.536Z,32.30
2018-07-09T11:00:56.304Z,32.40
2018-07-09T11:03:24.155Z,32.60
2018-07-09T11:05:52.068Z,32.30
2018-07-09T11:08:19.888Z,32.50
2018-07-09T11:10:47.741Z,32.50
2018-07-09T11:13:15.613Z,32.40
2018-07-09T11:15:43.491Z,32.30
2018-07-09T11:18:11.348Z,32.30
2018-07-09T11:20:39.265Z,32.60
2018-07-09T11:23:07.237Z,32.70
2018-07-09T11:25:35.203Z,32.80
2018-07-09T11:28:03.061Z,32.60
2018-07-09T11:30:30.983Z,32.40
2018-07-09T11:32:58.900Z,32.50
2018-07-09T11:35:26.691Z,32.50
2018-07-09T11:37:54.532Z,32.60
2018-07-09T11:40:22.401Z,32.50
2018-07-09T11:42:50.209Z,32.30
2018-07-09T11:45:18.928Z,32.30
2018-07-09T11:47:46.757Z,32.20
2018-07-09T11:50:14.629Z,32.30
2018-07-09T11:52:42.472Z,32.30
2018-07-09T11:55:10.365Z,32.10
2018-07-09T11:57:38.207Z,32.30
2018-07-09T12:00:06.205Z,32.50
2018-07-09T12:02:34.091Z,32.50
2018-07-09T12:05:02.039Z,32.60
2018-07-09T12:07:29.923Z,32.50
2018-07-09T12:09:57.796Z,32.40
2018-07-09T12:12:25.659Z,32.30
2018-07-09T12:14:53.532Z,32.10
2018-07-09T12:17:21.408Z,32.00
2018-07-09T12:22:17.140Z,31.80
2018-07-09T12:24:44.920Z,31.90
2018-07-09T12:27:12.828Z,32.00
2018-07-09T12:29:40.696Z,32.20
2018-07-09T12:32:08.547Z,32.40
2018-07-09T12:34:36.377Z,32.30
2018-07-09T12:39:32.492Z,32.10
2018-07-09T12:42:00.317Z,31.90
2018-07-09T12:44:28.145Z,31.80
2018-07-09T12:46:55.976Z,31.70
2018-07-09T12:49:23.891Z,31.50
2018-07-09T12:54:19.409Z,31.30
2018-07-09T12:56:47.252Z,31.20
2018-07-09T12:59:15.111Z,31.20
2018-07-09T13:01:43.100Z,31.30
2018-07-09T13:04:10.959Z,31.30
2018-07-09T13:06:38.840Z,31.30
2018-07-09T13:09:06.689Z,31.30
2018-07-09T13:11:34.460Z,31.30
2018-07-09T13:14:02.454Z,31.20
2018-07-09T13:16:30.297Z,31.10
2018-07-09T13:18:58.085Z,31.10
2018-07-09T13:21:25.931Z,30.80
2018-07-09T13:23:53.760Z,30.80
2018-07-09T13:26:21.671Z,30.80
2018-07-09T13:28:49.512Z,30.80
2018-07-09T13:31:17.592Z,30.80
2018-07-09T13:33:45.504Z,30.90
2018-07-09T13:36:13.400Z,31.00
2018-07-09T13:38:41.280Z,31.10
2018-07-09T13:41:09.095Z,31.00
2018-07-09T13:43:37.045Z,31.10
2018-07-09T13:46:04.991Z,31.00
2018-07-09T13:48:32.874Z,30.90
2018-07-09T13:51:00.790Z,31.00
2018-07-09T13:53:28.649Z,31.00
2018-07-09T13:55:56.718Z,31.00
2018-07-09T13:58:24.651Z,31.00
2018-07-09T14:00:52.494Z,30.90
2018-07-09T14:03:20.348Z,31.00
2018-07-09T14:05:48.218Z,31.20
2018-07-09T14:08:16.075Z,31.30
2018-07-09T14:10:43.852Z,31.20
2018-07-09T14:13:11.840Z,31.10
2018-07-09T14:15:39.604Z,30.80
2018-07-09T14:18:07.728Z,30.90
2018-07-09T14:20:39.193Z,30.90
2018-07-09T14:23:08.164Z,31.00
2018-07-09T14:25:36.072Z,31.10
2018-07-09T14:28:04.078Z,31.20
2018-07-09T14:30:32.008Z,31.30
2018-07-09T14:32:59.881Z,31.30
2018-07-09T14:35:27.748Z,31.30
2018-07-09T14:37:55.453Z,31.30
2018-07-09T14:40:23.563Z,31.20
2018-07-09T14:42:51.388Z,31.00
2018-07-09T14:45:19.233Z,31.00
2018-07-09T14:47:47.060Z,30.90
2018-07-09T14:50:14.899Z,31.00
2018-07-09T14:52:42.816Z,31.00
2018-07-09T14:55:10.580Z,30.90
2018-07-09T14:57:38.401Z,30.80
2018-07-09T15:00:06.724Z,30.70
2018-07-09T15:02:34.929Z,30.60
2018-07-09T15:05:02.884Z,30.50
2018-07-09T15:07:30.688Z,30.50
2018-07-09T15:09:58.576Z,30.50
2018-07-09T15:12:26.400Z,30.40
2018-07-09T15:14:54.244Z,30.30
2018-07-09T15:17:22.052Z,30.40
2018-07-09T15:19:49.945Z,30.40
2018-07-09T15:22:17.793Z,30.50
2018-07-09T15:24:45.615Z,30.60
2018-07-09T15:27:13.515Z,30.70
2018-07-09T15:29:41.634Z,30.60
2018-07-09T15:32:18.996Z,30.50
2018-07-09T15:34:46.828Z,30.50
2018-07-09T15:37:14.904Z,30.30
2018-07-09T15:39:43.084Z,30.30
2018-07-09T15:42:10.976Z,30.40
2018-07-09T15:44:38.773Z,30.40
2018-07-09T15:47:06.867Z,30.30
2018-07-09T15:49:34.957Z,30.20
2018-07-09T15:52:02.790Z,30.20
2018-07-09T15:54:30.615Z,30.10
2018-07-09T15:56:58.460Z,30.00
2018-07-09T15:59:26.300Z,29.80
2018-07-09T16:01:54.174Z,29.60
2018-07-09T16:04:22.026Z,29.60
2018-07-09T16:06:49.873Z,29.60
2018-07-09T16:09:17.768Z,29.60
2018-07-09T16:11:45.625Z,29.60
2018-07-09T16:14:13.397Z,29.60
2018-07-09T16:16:41.224Z,29.50
2018-07-09T16:19:09.033Z,29.40
2018-07-09T16:21:36.940Z,29.40
2018-07-09T16:24:04.820Z,29.50
2018-07-09T16:26:32.629Z,29.60
2018-07-09T16:29:00.485Z,29.60
2018-07-09T16:31:28.253Z,29.80
2018-07-09T16:33:56.111Z,29.80
2018-07-09T16:36:23.979Z,29.70
2018-07-09T16:38:51.712Z,29.50
2018-07-09T16:41:19.503Z,29.40
2018-07-09T16:46:15.116Z,29.40
2018-07-09T16:48:42.893Z,29.40
2018-07-09T16:51:10.781Z,29.30
2018-07-09T16:53:38.660Z,29.20
2018-07-09T16:56:06.767Z,29.20
2018-07-09T16:58:34.548Z,29.20
2018-07-09T17:01:02.396Z,29.30
2018-07-09T17:03:30.295Z,29.20
2018-07-09T17:05:58.168Z,29.20
2018-07-09T17:08:26.066Z,29.20
2018-07-09T17:10:53.944Z,29.00
2018-07-09T17:13:21.732Z,28.90
2018-07-09T17:15:49.535Z,28.80
2018-07-09T17:18:17.372Z,28.80
2018-07-09T17:20:45.251Z,28.70
2018-07-09T17:23:13.079Z,28.60
2018-07-09T17:25:41.029Z,28.60
2018-07-09T17:28:08.869Z,28.50
2018-07-09T17:30:36.674Z,28.40
2018-07-09T17:33:04.564Z,28.40
2018-07-09T17:35:32.355Z,28.30
2018-07-09T17:38:00.132Z,28.30
2018-07-09T17:40:27.923Z,28.30
2018-07-09T17:42:55.759Z,28.20
2018-07-09T17:45:23.555Z,28.20
2018-07-09T17:47:51.380Z,28.10
2018-07-09T17:50:19.236Z,28.00
2018-07-09T17:52:47.060Z,28.00
2018-07-09T17:55:14.828Z,27.80
2018-07-09T17:57:42.608Z,27.60
2018-07-09T18:00:10.408Z,27.40
2018-07-09T18:02:38.256Z,27.30
2018-07-09T18:05:06.123Z,27.30
2018-07-09T18:07:34.005Z,27.30
2018-07-09T18:10:01.777Z,27.20
2018-07-09T18:12:29.575Z,27.20
2018-07-09T18:14:57.357Z,27.20
2018-07-09T18:17:25.184Z,27.10
2018-07-09T18:19:52.980Z,27.10
2018-07-09T18:22:20.888Z,27.00
2018-07-09T18:24:48.699Z,26.90
2018-07-09T18:27:16.538Z,26.90
2018-07-09T18:29:45.288Z,26.90
2018-07-09T18:32:13.140Z,26.90
2018-07-09T18:34:41.639Z,26.80
2018-07-09T18:37:09.466Z,26.80
2018-07-09T18:39:37.314Z,26.80
2018-07-09T18:42:05.312Z,26.80
2018-07-09T18:44:33.088Z,26.80
2018-07-09T18:47:00.895Z,26.80
2018-07-09T18:49:28.651Z,26.70
2018-07-09T18:51:56.518Z,26.70
2018-07-09T18:54:24.315Z,26.70
2018-07-09T18:56:52.441Z,26.70
2018-07-09T18:59:20.330Z,26.70
2018-07-09T19:01:48.104Z,26.70
2018-07-09T19:04:15.862Z,26.60
2018-07-09T19:06:49.733Z,26.60
2018-07-09T19:09:17.704Z,26.60
2018-07-09T19:11:45.648Z,26.60
2018-07-09T19:14:14.442Z,26.40
2018-07-09T19:16:53.770Z,26.50
2018-07-09T19:19:33.523Z,26.30
2018-07-09T19:22:02.309Z,26.50
2018-07-09T19:24:29.385Z,26.40
2018-07-09T19:26:56.885Z,26.30
2018-07-09T19:29:23.532Z,26.20
2018-07-09T19:31:50.165Z,26.20
2018-07-09T19:34:16.906Z,26.00
2018-07-09T19:36:43.755Z,26.00
2018-07-09T19:39:11.198Z,25.90
2018-07-09T19:41:38.061Z,25.90
2018-07-09T19:44:04.776Z,25.80
2018-07-09T19:46:31.461Z,25.70
2018-07-09T19:48:58.174Z,25.60
2018-07-09T19:51:24.993Z,25.50
2018-07-09T19:53:51.824Z,25.50
2018-07-09T19:56:18.564Z,25.40
2018-07-09T19:58:45.349Z,25.40
2018-07-09T20:01:12.016Z,25.30
2018-07-09T20:03:38.865Z,25.30
2018-07-09T20:06:05.726Z,25.20
2018-07-09T20:08:37.863Z,25.20
2018-07-09T20:11:10.100Z,25.10
2018-07-09T20:13:51.185Z,25.00
2018-07-09T20:16:23.302Z,24.90
2018-07-09T20:18:51.556Z,24.80
2018-07-09T20:21:18.300Z,24.80
2018-07-09T20:23:45.061Z,24.70
2018-07-09T20:26:11.828Z,24.80
2018-07-09T20:28:38.614Z,24.70
2018-07-09T20:31:05.302Z,24.70
2018-07-09T20:33:31.983Z,24.70
2018-07-09T20:35:58.690Z,24.80
2018-07-09T20:38:25.453Z,24.90
2018-07-09T20:40:52.164Z,24.90
2018-07-09T20:43:18.920Z,24.90
2018-07-09T20:45:45.656Z,24.90
2018-07-09T20:48:12.368Z,24.90
2018-07-09T20:50:39.161Z,24.90
2018-07-09T20:53:05.825Z,24.90
2018-07-09T20:55:32.460Z,24.80
2018-07-09T20:57:59.170Z,24.80
2018-07-09T21:00:25.879Z,24.70
2018-07-09T21:02:52.648Z,24.70
2018-07-09T21:05:19.360Z,24.70
2018-07-09T21:07:46.090Z,24.70
2018-07-09T21:10:12.824Z,24.60
2018-07-09T21:12:45.112Z,24.50
2018-07-09T21:15:11.850Z,24.50
2018-07-09T21:17:38.513Z,24.40
2018-07-09T21:20:05.336Z,24.40
2018-07-09T21:22:32.013Z,24.40
2018-07-09T21:24:58.743Z,24.40
2018-07-09T21:27:25.388Z,24.40
2018-07-09T21:29:52.078Z,24.40
2018-07-09T21:32:18.732Z,24.40
2018-07-09T21:34:45.410Z,24.30
2018-07-09T21:37:12.052Z,24.40
2018-07-09T21:39:38.823Z,24.40
2018-07-09T21:42:05.468Z,24.40
2018-07-09T21:44:32.134Z,24.40
2018-07-09T21:46:58.791Z,24.30
2018-07-09T21:49:25.460Z,24.30
2018-07-09T21:51:52.108Z,24.30
2018-07-09T21:54:18.836Z,24.30
2018-07-09T21:59:12.646Z,24.20
2018-07-09T22:01:39.344Z,24.20
2018-07-09T22:04:05.985Z,24.10
2018-07-09T22:06:32.641Z,24.00
2018-07-09T22:08:59.299Z,24.00
2018-07-09T22:11:26.020Z,23.90
2018-07-09T22:16:19.848Z,23.90
2018-07-09T22:18:46.486Z,23.80
2018-07-09T22:21:13.360Z,23.80
2018-07-09T22:23:40.063Z,23.80
2018-07-09T22:26:06.775Z,23.80
2018-07-09T22:28:33.448Z,23.70
2018-07-09T22:31:01.427Z,23.70
2018-07-09T22:33:29.215Z,23.70
2018-07-09T22:35:57.005Z,23.80
2018-07-09T22:38:24.792Z,23.90
2018-07-09T22:40:52.640Z,23.90
2018-07-09T22:43:31.589Z,23.80
2018-07-09T22:45:59.408Z,23.80
2018-07-09T22:48:27.185Z,23.70
2018-07-09T22:50:55.030Z,23.70
2018-07-09T22:53:22.844Z,23.60
2018-07-09T22:56:04.152Z,23.50
2018-07-09T22:58:31.904Z,23.50
2018-07-09T23:00:59.693Z,23.40
2018-07-09T23:03:27.511Z,23.50
2018-07-09T23:05:55.365Z,23.40
2018-07-09T23:08:23.256Z,23.50
2018-07-09T23:11:27.092Z,23.40
2018-07-09T23:16:12.912Z,23.10
2018-07-09T23:19:00.672Z,23.30
2018-07-09T23:21:40.796Z,23.20
2018-07-09T23:24:07.547Z,23.20
2018-07-09T23:26:34.243Z,23.20
2018-07-09T23:29:01.008Z,23.00
2018-07-09T23:31:27.768Z,23.20
2018-07-09T23:33:54.517Z,23.10
2018-07-09T23:36:22.074Z,23.00
2018-07-09T23:38:48.845Z,23.10
2018-07-09T23:41:15.584Z,23.10
2018-07-09T23:43:42.318Z,23.10
